sensor_id;sensor_type;location;lat;lon;timestamp;P1;durP1;ratioP1;P2;durP2;ratioP2
81864;SDS011;71313;43.514;1.500;2023-12-28T00:00:30;12.05;;;6.20;;
81864;SDS011;71313;43.514;1.500;2023-12-28T00:02:57;10.70;;;5.72;;
81864;SDS011;71313;43.514;1.500;2023-12-28T00:05:28;13.50;;;6.30;;
81864;SDS011;71313;43.514;1.500;2023-12-28T00:07:56;13.75;;;5.72;;
81864;SDS011;71313;43.514;1.500;2023-12-28T00:10:23;11.93;;;6.15;;
81864;SDS011;71313;43.514;1.500;2023-12-28T00:12:55;9.88;;;5.20;;
81864;SDS011;71313;43.514;1.500;2023-12-28T00:15:24;11.02;;;4.80;;
81864;SDS011;71313;43.514;1.500;2023-12-28T00:17:55;9.30;;;4.88;;
81864;SDS011;71313;43.514;1.500;2023-12-28T00:20:23;9.57;;;5.20;;
81864;SDS011;71313;43.514;1.500;2023-12-28T00:22:49;7.90;;;4.55;;
81864;SDS011;71313;43.514;1.500;2023-12-28T00:25:21;11.73;;;5.00;;
81864;SDS011;71313;43.514;1.500;2023-12-28T00:27:46;13.98;;;5.22;;
81864;SDS011;71313;43.514;1.500;2023-12-28T00:30:18;10.07;;;4.60;;
81864;SDS011;71313;43.514;1.500;2023-12-28T00:32:46;9.52;;;5.35;;
81864;SDS011;71313;43.514;1.500;2023-12-28T00:35:18;7.88;;;4.45;;
81864;SDS011;71313;43.514;1.500;2023-12-28T00:37:44;10.38;;;4.60;;
81864;SDS011;71313;43.514;1.500;2023-12-28T00:40:16;7.72;;;4.22;;
81864;SDS011;71313;43.514;1.500;2023-12-28T00:42:48;7.60;;;3.95;;
81864;SDS011;71313;43.514;1.500;2023-12-28T00:45:19;11.38;;;4.65;;
81864;SDS011;71313;43.514;1.500;2023-12-28T00:47:51;8.07;;;4.35;;
81864;SDS011;71313;43.514;1.500;2023-12-28T00:50:20;10.40;;;4.45;;
81864;SDS011;71313;43.514;1.500;2023-12-28T00:52:51;9.30;;;4.28;;
81864;SDS011;71313;43.514;1.500;2023-12-28T00:55:23;8.38;;;4.18;;
81864;SDS011;71313;43.514;1.500;2023-12-28T00:57:55;9.05;;;4.00;;
81864;SDS011;71313;43.514;1.500;2023-12-28T01:00:24;7.28;;;4.10;;
81864;SDS011;71313;43.514;1.500;2023-12-28T01:02:52;7.82;;;4.10;;
81864;SDS011;71313;43.514;1.500;2023-12-28T01:05:24;8.88;;;4.20;;
81864;SDS011;71313;43.514;1.500;2023-12-28T01:07:56;11.10;;;4.10;;
81864;SDS011;71313;43.514;1.500;2023-12-28T01:10:25;8.52;;;4.10;;
81864;SDS011;71313;43.514;1.500;2023-12-28T01:12:56;7.97;;;4.07;;
81864;SDS011;71313;43.514;1.500;2023-12-28T01:15:25;8.52;;;4.28;;
81864;SDS011;71313;43.514;1.500;2023-12-28T01:17:56;7.38;;;4.05;;
81864;SDS011;71313;43.514;1.500;2023-12-28T01:20:22;8.35;;;4.53;;
81864;SDS011;71313;43.514;1.500;2023-12-28T01:22:53;9.65;;;4.28;;
81864;SDS011;71313;43.514;1.500;2023-12-28T01:25:25;8.60;;;4.38;;
81864;SDS011;71313;43.514;1.500;2023-12-28T01:27:54;7.15;;;4.05;;
81864;SDS011;71313;43.514;1.500;2023-12-28T01:30:25;8.57;;;4.20;;
81864;SDS011;71313;43.514;1.500;2023-12-28T01:32:54;10.73;;;4.43;;
81864;SDS011;71313;43.514;1.500;2023-12-28T01:35:23;8.32;;;3.95;;
81864;SDS011;71313;43.514;1.500;2023-12-28T01:37:54;7.25;;;4.00;;
81864;SDS011;71313;43.514;1.500;2023-12-28T01:40:28;10.13;;;4.28;;
81864;SDS011;71313;43.514;1.500;2023-12-28T01:42:59;6.13;;;4.18;;
81864;SDS011;71313;43.514;1.500;2023-12-28T01:45:31;8.35;;;3.80;;
81864;SDS011;71313;43.514;1.500;2023-12-28T01:47:59;6.78;;;4.00;;
81864;SDS011;71313;43.514;1.500;2023-12-28T01:50:31;6.90;;;3.80;;
81864;SDS011;71313;43.514;1.500;2023-12-28T01:53:04;8.05;;;4.03;;
81864;SDS011;71313;43.514;1.500;2023-12-28T01:55:36;5.90;;;3.80;;
81864;SDS011;71313;43.514;1.500;2023-12-28T02:00:38;6.72;;;3.50;;
81864;SDS011;71313;43.514;1.500;2023-12-28T02:03:07;6.90;;;3.45;;
81864;SDS011;71313;43.514;1.500;2023-12-28T02:05:36;6.05;;;3.50;;
81864;SDS011;71313;43.514;1.500;2023-12-28T02:08:08;5.93;;;3.30;;
81864;SDS011;71313;43.514;1.500;2023-12-28T02:10:38;7.45;;;3.65;;
81864;SDS011;71313;43.514;1.500;2023-12-28T02:13:07;6.50;;;3.60;;
81864;SDS011;71313;43.514;1.500;2023-12-28T02:15:38;7.25;;;3.60;;
81864;SDS011;71313;43.514;1.500;2023-12-28T02:18:10;6.45;;;3.65;;
81864;SDS011;71313;43.514;1.500;2023-12-28T02:20:48;7.43;;;3.30;;
81864;SDS011;71313;43.514;1.500;2023-12-28T02:23:17;6.45;;;3.30;;
81864;SDS011;71313;43.514;1.500;2023-12-28T02:25:48;5.25;;;3.35;;
81864;SDS011;71313;43.514;1.500;2023-12-28T02:28:20;8.10;;;3.97;;
81864;SDS011;71313;43.514;1.500;2023-12-28T02:30:51;12.15;;;4.38;;
81864;SDS011;71313;43.514;1.500;2023-12-28T02:33:29;5.60;;;3.42;;
81864;SDS011;71313;43.514;1.500;2023-12-28T02:36:09;8.13;;;3.95;;
81864;SDS011;71313;43.514;1.500;2023-12-28T02:38:44;6.70;;;4.07;;
81864;SDS011;71313;43.514;1.500;2023-12-28T02:41:16;7.50;;;4.00;;
81864;SDS011;71313;43.514;1.500;2023-12-28T02:43:48;6.50;;;3.73;;
81864;SDS011;71313;43.514;1.500;2023-12-28T02:46:13;6.43;;;3.60;;
81864;SDS011;71313;43.514;1.500;2023-12-28T02:48:45;6.43;;;3.70;;
81864;SDS011;71313;43.514;1.500;2023-12-28T02:51:11;8.63;;;3.80;;
81864;SDS011;71313;43.514;1.500;2023-12-28T02:53:39;9.63;;;4.40;;
81864;SDS011;71313;43.514;1.500;2023-12-28T02:56:08;8.48;;;4.25;;
81864;SDS011;71313;43.514;1.500;2023-12-28T02:58:40;9.98;;;4.50;;
81864;SDS011;71313;43.514;1.500;2023-12-28T03:01:08;10.48;;;4.88;;
81864;SDS011;71313;43.514;1.500;2023-12-28T03:03:39;8.57;;;4.00;;
81864;SDS011;71313;43.514;1.500;2023-12-28T03:06:11;8.70;;;3.97;;
81864;SDS011;71313;43.514;1.500;2023-12-28T03:08:45;6.82;;;3.45;;
81864;SDS011;71313;43.514;1.500;2023-12-28T03:11:17;6.78;;;4.10;;
81864;SDS011;71313;43.514;1.500;2023-12-28T03:13:45;6.78;;;4.30;;
81864;SDS011;71313;43.514;1.500;2023-12-28T03:16:17;8.63;;;3.88;;
81864;SDS011;71313;43.514;1.500;2023-12-28T03:18:48;7.50;;;4.45;;
81864;SDS011;71313;43.514;1.500;2023-12-28T03:21:20;6.45;;;3.88;;
81864;SDS011;71313;43.514;1.500;2023-12-28T03:23:51;9.18;;;4.50;;
81864;SDS011;71313;43.514;1.500;2023-12-28T03:26:23;9.43;;;4.40;;
81864;SDS011;71313;43.514;1.500;2023-12-28T03:28:52;7.43;;;4.43;;
81864;SDS011;71313;43.514;1.500;2023-12-28T03:31:20;8.70;;;4.68;;
81864;SDS011;71313;43.514;1.500;2023-12-28T03:33:48;9.32;;;4.90;;
81864;SDS011;71313;43.514;1.500;2023-12-28T03:36:20;13.70;;;4.88;;
81864;SDS011;71313;43.514;1.500;2023-12-28T03:38:51;9.68;;;5.28;;
81864;SDS011;71313;43.514;1.500;2023-12-28T03:41:23;10.25;;;5.10;;
81864;SDS011;71313;43.514;1.500;2023-12-28T03:43:54;10.65;;;4.88;;
81864;SDS011;71313;43.514;1.500;2023-12-28T03:46:25;8.50;;;4.70;;
81864;SDS011;71313;43.514;1.500;2023-12-28T03:48:57;10.48;;;4.40;;
81864;SDS011;71313;43.514;1.500;2023-12-28T03:51:25;8.07;;;4.45;;
81864;SDS011;71313;43.514;1.500;2023-12-28T03:53:57;9.93;;;4.65;;
81864;SDS011;71313;43.514;1.500;2023-12-28T03:56:28;8.30;;;4.15;;
81864;SDS011;71313;43.514;1.500;2023-12-28T03:58:55;8.25;;;4.63;;
81864;SDS011;71313;43.514;1.500;2023-12-28T04:01:23;8.57;;;3.97;;
81864;SDS011;71313;43.514;1.500;2023-12-28T04:03:55;9.57;;;5.07;;
81864;SDS011;71313;43.514;1.500;2023-12-28T04:06:23;8.18;;;4.88;;
81864;SDS011;71313;43.514;1.500;2023-12-28T04:08:55;7.63;;;4.72;;
81864;SDS011;71313;43.514;1.500;2023-12-28T04:11:23;7.38;;;4.38;;
81864;SDS011;71313;43.514;1.500;2023-12-28T04:13:52;8.88;;;4.60;;
81864;SDS011;71313;43.514;1.500;2023-12-28T04:16:23;7.93;;;4.80;;
81864;SDS011;71313;43.514;1.500;2023-12-28T04:18:54;7.90;;;4.82;;
81864;SDS011;71313;43.514;1.500;2023-12-28T04:21:23;7.82;;;4.53;;
81864;SDS011;71313;43.514;1.500;2023-12-28T04:23:54;8.05;;;4.60;;
81864;SDS011;71313;43.514;1.500;2023-12-28T04:26:26;8.55;;;4.70;;
81864;SDS011;71313;43.514;1.500;2023-12-28T04:28:58;7.72;;;4.45;;
81864;SDS011;71313;43.514;1.500;2023-12-28T04:31:26;8.07;;;4.30;;
81864;SDS011;71313;43.514;1.500;2023-12-28T04:33:58;8.07;;;4.25;;
81864;SDS011;71313;43.514;1.500;2023-12-28T04:36:29;10.02;;;4.72;;
81864;SDS011;71313;43.514;1.500;2023-12-28T04:39:01;9.25;;;4.75;;
81864;SDS011;71313;43.514;1.500;2023-12-28T04:41:32;11.00;;;5.07;;
81864;SDS011;71313;43.514;1.500;2023-12-28T04:44:04;10.55;;;5.05;;
81864;SDS011;71313;43.514;1.500;2023-12-28T04:46:32;8.38;;;5.40;;
81864;SDS011;71313;43.514;1.500;2023-12-28T04:49:10;12.18;;;5.10;;
81864;SDS011;71313;43.514;1.500;2023-12-28T04:51:42;8.38;;;4.88;;
81864;SDS011;71313;43.514;1.500;2023-12-28T04:54:10;12.65;;;5.32;;
81864;SDS011;71313;43.514;1.500;2023-12-28T04:56:39;8.63;;;4.88;;
81864;SDS011;71313;43.514;1.500;2023-12-28T04:59:10;7.82;;;4.78;;
81864;SDS011;71313;43.514;1.500;2023-12-28T05:01:42;9.27;;;4.90;;
81864;SDS011;71313;43.514;1.500;2023-12-28T05:04:13;8.63;;;4.45;;
81864;SDS011;71313;43.514;1.500;2023-12-28T05:06:41;7.57;;;4.55;;
81864;SDS011;71313;43.514;1.500;2023-12-28T05:09:13;6.90;;;4.30;;
81864;SDS011;71313;43.514;1.500;2023-12-28T05:11:41;9.02;;;3.85;;
81864;SDS011;71313;43.514;1.500;2023-12-28T05:14:12;7.05;;;4.70;;
81864;SDS011;71313;43.514;1.500;2023-12-28T05:16:41;10.18;;;4.60;;
81864;SDS011;71313;43.514;1.500;2023-12-28T05:19:10;8.43;;;4.15;;
81864;SDS011;71313;43.514;1.500;2023-12-28T05:21:39;7.00;;;4.05;;
81864;SDS011;71313;43.514;1.500;2023-12-28T05:24:11;6.90;;;3.93;;
81864;SDS011;71313;43.514;1.500;2023-12-28T05:26:42;8.55;;;4.13;;
81864;SDS011;71313;43.514;1.500;2023-12-28T05:29:08;6.60;;;4.03;;
81864;SDS011;71313;43.514;1.500;2023-12-28T05:31:39;8.25;;;4.20;;
81864;SDS011;71313;43.514;1.500;2023-12-28T05:34:08;8.40;;;4.50;;
81864;SDS011;71313;43.514;1.500;2023-12-28T05:36:36;8.43;;;4.47;;
81864;SDS011;71313;43.514;1.500;2023-12-28T05:39:09;7.80;;;3.95;;
81864;SDS011;71313;43.514;1.500;2023-12-28T05:41:43;7.88;;;3.92;;
81864;SDS011;71313;43.514;1.500;2023-12-28T05:44:16;5.57;;;3.40;;
81864;SDS011;71313;43.514;1.500;2023-12-28T05:46:47;8.60;;;4.03;;
81864;SDS011;71313;43.514;1.500;2023-12-28T05:49:20;6.63;;;4.03;;
81864;SDS011;71313;43.514;1.500;2023-12-28T05:51:53;6.22;;;3.80;;
81864;SDS011;71313;43.514;1.500;2023-12-28T05:54:24;6.53;;;4.15;;
81864;SDS011;71313;43.514;1.500;2023-12-28T05:56:56;7.80;;;3.67;;
81864;SDS011;71313;43.514;1.500;2023-12-28T05:59:24;6.70;;;3.53;;
81864;SDS011;71313;43.514;1.500;2023-12-28T06:01:54;6.30;;;3.47;;
81864;SDS011;71313;43.514;1.500;2023-12-28T06:04:22;5.80;;;3.38;;
81864;SDS011;71313;43.514;1.500;2023-12-28T06:06:51;7.07;;;3.53;;
81864;SDS011;71313;43.514;1.500;2023-12-28T06:09:19;6.57;;;3.70;;
81864;SDS011;71313;43.514;1.500;2023-12-28T06:11:50;5.95;;;3.70;;
81864;SDS011;71313;43.514;1.500;2023-12-28T06:14:22;8.10;;;3.60;;
81864;SDS011;71313;43.514;1.500;2023-12-28T06:16:53;7.70;;;3.53;;
81864;SDS011;71313;43.514;1.500;2023-12-28T06:19:22;8.35;;;3.75;;
81864;SDS011;71313;43.514;1.500;2023-12-28T06:21:53;7.03;;;3.70;;
81864;SDS011;71313;43.514;1.500;2023-12-28T06:24:23;5.70;;;3.60;;
81864;SDS011;71313;43.514;1.500;2023-12-28T06:26:51;7.53;;;3.90;;
81864;SDS011;71313;43.514;1.500;2023-12-28T06:29:20;5.65;;;3.42;;
81864;SDS011;71313;43.514;1.500;2023-12-28T06:31:51;6.35;;;3.70;;
81864;SDS011;71313;43.514;1.500;2023-12-28T06:34:19;7.53;;;3.83;;
81864;SDS011;71313;43.514;1.500;2023-12-28T06:36:51;8.30;;;3.75;;
81864;SDS011;71313;43.514;1.500;2023-12-28T06:39:22;5.13;;;3.15;;
81864;SDS011;71313;43.514;1.500;2023-12-28T06:41:54;5.90;;;3.80;;
81864;SDS011;71313;43.514;1.500;2023-12-28T06:44:22;7.80;;;4.05;;
81864;SDS011;71313;43.514;1.500;2023-12-28T06:46:54;7.95;;;3.97;;
81864;SDS011;71313;43.514;1.500;2023-12-28T06:49:26;4.73;;;3.40;;
81864;SDS011;71313;43.514;1.500;2023-12-28T06:51:55;8.18;;;4.15;;
81864;SDS011;71313;43.514;1.500;2023-12-28T06:54:26;5.35;;;3.58;;
81864;SDS011;71313;43.514;1.500;2023-12-28T06:56:57;6.10;;;4.15;;
81864;SDS011;71313;43.514;1.500;2023-12-28T06:59:26;6.10;;;3.55;;
81864;SDS011;71313;43.514;1.500;2023-12-28T07:01:54;7.22;;;3.85;;
81864;SDS011;71313;43.514;1.500;2023-12-28T07:04:25;6.32;;;3.78;;
81864;SDS011;71313;43.514;1.500;2023-12-28T07:06:57;5.80;;;4.18;;
81864;SDS011;71313;43.514;1.500;2023-12-28T07:09:23;5.50;;;3.42;;
81864;SDS011;71313;43.514;1.500;2023-12-28T07:11:54;6.35;;;3.90;;
81864;SDS011;71313;43.514;1.500;2023-12-28T07:14:25;7.00;;;3.85;;
81864;SDS011;71313;43.514;1.500;2023-12-28T07:16:54;6.57;;;3.83;;
81864;SDS011;71313;43.514;1.500;2023-12-28T07:19:25;8.20;;;3.92;;
81864;SDS011;71313;43.514;1.500;2023-12-28T07:21:57;8.73;;;4.22;;
81864;SDS011;71313;43.514;1.500;2023-12-28T07:24:26;9.82;;;3.80;;
81864;SDS011;71313;43.514;1.500;2023-12-28T07:26:54;7.85;;;3.85;;
81864;SDS011;71313;43.514;1.500;2023-12-28T07:29:25;8.02;;;3.95;;
81864;SDS011;71313;43.514;1.500;2023-12-28T07:31:54;6.78;;;3.80;;
81864;SDS011;71313;43.514;1.500;2023-12-28T07:34:19;6.50;;;4.32;;
81864;SDS011;71313;43.514;1.500;2023-12-28T07:36:48;9.52;;;4.55;;
81864;SDS011;71313;43.514;1.500;2023-12-28T07:39:19;8.73;;;4.43;;
81864;SDS011;71313;43.514;1.500;2023-12-28T07:41:51;6.30;;;3.67;;
81864;SDS011;71313;43.514;1.500;2023-12-28T07:44:20;6.72;;;3.92;;
81864;SDS011;71313;43.514;1.500;2023-12-28T07:46:48;6.78;;;3.95;;
81864;SDS011;71313;43.514;1.500;2023-12-28T07:49:14;7.60;;;4.80;;
81864;SDS011;71313;43.514;1.500;2023-12-28T07:51:42;8.32;;;4.05;;
81864;SDS011;71313;43.514;1.500;2023-12-28T07:54:14;7.78;;;3.90;;
81864;SDS011;71313;43.514;1.500;2023-12-28T07:56:39;7.20;;;3.92;;
81864;SDS011;71313;43.514;1.500;2023-12-28T07:59:11;5.35;;;3.60;;
81864;SDS011;71313;43.514;1.500;2023-12-28T08:01:42;7.07;;;3.80;;
81864;SDS011;71313;43.514;1.500;2023-12-28T08:04:10;8.40;;;4.25;;
81864;SDS011;71313;43.514;1.500;2023-12-28T08:06:42;6.75;;;4.15;;
81864;SDS011;71313;43.514;1.500;2023-12-28T08:09:16;6.38;;;3.75;;
81864;SDS011;71313;43.514;1.500;2023-12-28T08:11:44;7.00;;;3.80;;
81864;SDS011;71313;43.514;1.500;2023-12-28T08:14:16;8.52;;;3.42;;
81864;SDS011;71313;43.514;1.500;2023-12-28T08:16:47;7.45;;;3.88;;
81864;SDS011;71313;43.514;1.500;2023-12-28T08:19:18;8.65;;;4.10;;
81864;SDS011;71313;43.514;1.500;2023-12-28T08:21:49;8.57;;;3.85;;
81864;SDS011;71313;43.514;1.500;2023-12-28T08:24:21;9.52;;;3.95;;
81864;SDS011;71313;43.514;1.500;2023-12-28T08:26:52;8.05;;;3.80;;
81864;SDS011;71313;43.514;1.500;2023-12-28T08:29:27;7.80;;;3.95;;
81864;SDS011;71313;43.514;1.500;2023-12-28T08:31:59;4.95;;;3.63;;
81864;SDS011;71313;43.514;1.500;2023-12-28T08:34:28;7.65;;;4.10;;
81864;SDS011;71313;43.514;1.500;2023-12-28T08:36:59;6.97;;;4.10;;
81864;SDS011;71313;43.514;1.500;2023-12-28T08:39:28;7.05;;;3.83;;
81864;SDS011;71313;43.514;1.500;2023-12-28T08:41:59;6.13;;;3.40;;
81864;SDS011;71313;43.514;1.500;2023-12-28T08:44:31;8.00;;;3.75;;
81864;SDS011;71313;43.514;1.500;2023-12-28T08:49:33;7.80;;;3.40;;
81864;SDS011;71313;43.514;1.500;2023-12-28T08:52:04;6.53;;;3.53;;
81864;SDS011;71313;43.514;1.500;2023-12-28T08:54:33;6.40;;;3.60;;
81864;SDS011;71313;43.514;1.500;2023-12-28T08:57:01;5.65;;;3.65;;
81864;SDS011;71313;43.514;1.500;2023-12-28T08:59:35;7.32;;;3.50;;
81864;SDS011;71313;43.514;1.500;2023-12-28T09:02:07;5.95;;;3.40;;
81864;SDS011;71313;43.514;1.500;2023-12-28T09:04:39;7.13;;;3.72;;
81864;SDS011;71313;43.514;1.500;2023-12-28T09:07:10;6.28;;;3.60;;
81864;SDS011;71313;43.514;1.500;2023-12-28T09:09:42;6.72;;;3.70;;
81864;SDS011;71313;43.514;1.500;2023-12-28T09:12:13;5.05;;;3.80;;
81864;SDS011;71313;43.514;1.500;2023-12-28T09:14:45;6.43;;;3.70;;
81864;SDS011;71313;43.514;1.500;2023-12-28T09:17:13;6.78;;;4.07;;
81864;SDS011;71313;43.514;1.500;2023-12-28T09:19:44;7.00;;;3.65;;
81864;SDS011;71313;43.514;1.500;2023-12-28T09:22:13;6.30;;;4.00;;
81864;SDS011;71313;43.514;1.500;2023-12-28T09:24:44;6.50;;;4.15;;
81864;SDS011;71313;43.514;1.500;2023-12-28T09:27:15;7.30;;;4.70;;
81864;SDS011;71313;43.514;1.500;2023-12-28T09:29:47;7.45;;;4.60;;
81864;SDS011;71313;43.514;1.500;2023-12-28T09:32:21;7.05;;;4.30;;
81864;SDS011;71313;43.514;1.500;2023-12-28T09:34:52;6.05;;;3.97;;
81864;SDS011;71313;43.514;1.500;2023-12-28T09:37:20;7.28;;;4.07;;
81864;SDS011;71313;43.514;1.500;2023-12-28T09:39:49;8.00;;;4.15;;
81864;SDS011;71313;43.514;1.500;2023-12-28T09:42:25;8.05;;;4.57;;
81864;SDS011;71313;43.514;1.500;2023-12-28T09:45:08;7.50;;;4.28;;
81864;SDS011;71313;43.514;1.500;2023-12-28T09:47:38;8.57;;;4.20;;
81864;SDS011;71313;43.514;1.500;2023-12-28T09:50:12;7.55;;;4.40;;
81864;SDS011;71313;43.514;1.500;2023-12-28T09:52:45;6.72;;;4.28;;
81864;SDS011;71313;43.514;1.500;2023-12-28T09:55:17;7.78;;;4.38;;
81864;SDS011;71313;43.514;1.500;2023-12-28T09:57:46;7.93;;;4.22;;
81864;SDS011;71313;43.514;1.500;2023-12-28T10:00:14;7.15;;;3.80;;
81864;SDS011;71313;43.514;1.500;2023-12-28T10:02:46;8.55;;;4.20;;
81864;SDS011;71313;43.514;1.500;2023-12-28T10:05:14;8.27;;;4.00;;
81864;SDS011;71313;43.514;1.500;2023-12-28T10:07:44;8.27;;;3.88;;
81864;SDS011;71313;43.514;1.500;2023-12-28T10:10:12;8.35;;;4.15;;
81864;SDS011;71313;43.514;1.500;2023-12-28T10:12:41;9.00;;;3.85;;
81864;SDS011;71313;43.514;1.500;2023-12-28T10:15:14;6.75;;;4.18;;
81864;SDS011;71313;43.514;1.500;2023-12-28T10:17:43;6.72;;;4.03;;
81864;SDS011;71313;43.514;1.500;2023-12-28T10:20:09;6.60;;;4.00;;
81864;SDS011;71313;43.514;1.500;2023-12-28T10:22:38;7.47;;;3.85;;
81864;SDS011;71313;43.514;1.500;2023-12-28T10:25:09;5.32;;;4.03;;
81864;SDS011;71313;43.514;1.500;2023-12-28T10:27:39;9.25;;;4.63;;
81864;SDS011;71313;43.514;1.500;2023-12-28T10:30:10;8.10;;;4.55;;
81864;SDS011;71313;43.514;1.500;2023-12-28T10:32:42;7.30;;;4.40;;
81864;SDS011;71313;43.514;1.500;2023-12-28T10:35:11;10.15;;;4.80;;
81864;SDS011;71313;43.514;1.500;2023-12-28T10:37:37;8.68;;;4.53;;
81864;SDS011;71313;43.514;1.500;2023-12-28T10:40:12;8.70;;;4.70;;
81864;SDS011;71313;43.514;1.500;2023-12-28T10:45:18;9.57;;;5.40;;
81864;SDS011;71313;43.514;1.500;2023-12-28T10:48:04;8.15;;;4.75;;
81864;SDS011;71313;43.514;1.500;2023-12-28T10:50:41;8.40;;;4.97;;
81864;SDS011;71313;43.514;1.500;2023-12-28T10:58:58;7.78;;;4.70;;
81864;SDS011;71313;43.514;1.500;2023-12-28T11:01:41;7.95;;;4.88;;
81864;SDS011;71313;43.514;1.500;2023-12-28T11:07:02;12.43;;;4.93;;
81864;SDS011;71313;43.514;1.500;2023-12-28T11:09:35;7.18;;;4.85;;
81864;SDS011;71313;43.514;1.500;2023-12-28T11:12:10;7.85;;;4.93;;
81864;SDS011;71313;43.514;1.500;2023-12-28T11:14:46;8.63;;;4.50;;
81864;SDS011;71313;43.514;1.500;2023-12-28T11:17:17;8.95;;;4.80;;
81864;SDS011;71313;43.514;1.500;2023-12-28T11:19:53;5.90;;;4.72;;
81864;SDS011;71313;43.514;1.500;2023-12-28T11:22:22;7.28;;;4.55;;
81864;SDS011;71313;43.514;1.500;2023-12-28T11:24:55;6.55;;;4.75;;
81864;SDS011;71313;43.514;1.500;2023-12-28T11:27:34;10.60;;;4.70;;
81864;SDS011;71313;43.514;1.500;2023-12-28T11:30:06;8.05;;;4.80;;
81864;SDS011;71313;43.514;1.500;2023-12-28T11:32:35;7.47;;;4.20;;
81864;SDS011;71313;43.514;1.500;2023-12-28T11:35:01;9.35;;;5.05;;
81864;SDS011;71313;43.514;1.500;2023-12-28T11:37:38;7.82;;;4.35;;
81864;SDS011;71313;43.514;1.500;2023-12-28T11:40:18;7.25;;;4.60;;
81864;SDS011;71313;43.514;1.500;2023-12-28T11:42:47;9.52;;;5.07;;
81864;SDS011;71313;43.514;1.500;2023-12-28T11:45:19;8.18;;;5.18;;
81864;SDS011;71313;43.514;1.500;2023-12-28T11:48:01;7.60;;;4.70;;
81864;SDS011;71313;43.514;1.500;2023-12-28T11:50:31;7.70;;;4.53;;
81864;SDS011;71313;43.514;1.500;2023-12-28T11:53:00;7.05;;;4.15;;
81864;SDS011;71313;43.514;1.500;2023-12-28T11:55:25;6.95;;;4.13;;
81864;SDS011;71313;43.514;1.500;2023-12-28T11:57:54;8.05;;;4.03;;
81864;SDS011;71313;43.514;1.500;2023-12-28T12:00:25;7.05;;;4.35;;
81864;SDS011;71313;43.514;1.500;2023-12-28T12:02:54;7.95;;;4.07;;
81864;SDS011;71313;43.514;1.500;2023-12-28T12:05:20;7.38;;;4.15;;
81864;SDS011;71313;43.514;1.500;2023-12-28T12:07:48;9.60;;;4.65;;
81864;SDS011;71313;43.514;1.500;2023-12-28T12:10:20;6.97;;;4.38;;
81864;SDS011;71313;43.514;1.500;2023-12-28T12:12:52;7.13;;;4.38;;
81864;SDS011;71313;43.514;1.500;2023-12-28T12:15:20;8.98;;;4.82;;
81864;SDS011;71313;43.514;1.500;2023-12-28T12:17:51;7.25;;;4.80;;
81864;SDS011;71313;43.514;1.500;2023-12-28T12:20:20;7.78;;;4.38;;
81864;SDS011;71313;43.514;1.500;2023-12-28T12:22:49;7.03;;;4.40;;
81864;SDS011;71313;43.514;1.500;2023-12-28T12:25:21;7.55;;;4.45;;
81864;SDS011;71313;43.514;1.500;2023-12-28T12:27:52;8.25;;;4.53;;
81864;SDS011;71313;43.514;1.500;2023-12-28T12:30:24;6.95;;;4.65;;
81864;SDS011;71313;43.514;1.500;2023-12-28T12:32:52;7.63;;;4.13;;
81864;SDS011;71313;43.514;1.500;2023-12-28T12:35:21;7.57;;;4.15;;
81864;SDS011;71313;43.514;1.500;2023-12-28T12:37:47;6.47;;;4.32;;
81864;SDS011;71313;43.514;1.500;2023-12-28T12:40:19;8.60;;;4.93;;
81864;SDS011;71313;43.514;1.500;2023-12-28T12:42:54;8.32;;;4.50;;
81864;SDS011;71313;43.514;1.500;2023-12-28T12:45:26;6.43;;;4.03;;
81864;SDS011;71313;43.514;1.500;2023-12-28T12:47:57;8.30;;;4.28;;
81864;SDS011;71313;43.514;1.500;2023-12-28T12:50:27;7.68;;;4.80;;
81864;SDS011;71313;43.514;1.500;2023-12-28T12:52:59;7.50;;;4.40;;
81864;SDS011;71313;43.514;1.500;2023-12-28T12:55:33;7.18;;;4.85;;
81864;SDS011;71313;43.514;1.500;2023-12-28T12:58:02;6.78;;;4.50;;
81864;SDS011;71313;43.514;1.500;2023-12-28T13:00:33;8.23;;;4.55;;
81864;SDS011;71313;43.514;1.500;2023-12-28T13:03:00;8.07;;;4.60;;
81864;SDS011;71313;43.514;1.500;2023-12-28T13:05:28;9.65;;;4.70;;
81864;SDS011;71313;43.514;1.500;2023-12-28T13:07:59;10.05;;;4.97;;
81864;SDS011;71313;43.514;1.500;2023-12-28T13:10:31;8.32;;;4.80;;
81864;SDS011;71313;43.514;1.500;2023-12-28T13:13:06;9.70;;;4.88;;
81864;SDS011;71313;43.514;1.500;2023-12-28T13:15:37;9.18;;;5.00;;
81864;SDS011;71313;43.514;1.500;2023-12-28T13:18:09;8.77;;;4.70;;
81864;SDS011;71313;43.514;1.500;2023-12-28T13:20:37;10.95;;;6.20;;
81864;SDS011;71313;43.514;1.500;2023-12-28T13:23:06;10.73;;;5.40;;
81864;SDS011;71313;43.514;1.500;2023-12-28T13:25:35;7.93;;;4.75;;
81864;SDS011;71313;43.514;1.500;2023-12-28T13:28:06;7.70;;;5.28;;
81864;SDS011;71313;43.514;1.500;2023-12-28T13:30:35;8.63;;;4.60;;
81864;SDS011;71313;43.514;1.500;2023-12-28T13:33:05;10.13;;;5.30;;
81864;SDS011;71313;43.514;1.500;2023-12-28T13:35:36;6.65;;;4.65;;
81864;SDS011;71313;43.514;1.500;2023-12-28T13:38:07;8.82;;;5.13;;
81864;SDS011;71313;43.514;1.500;2023-12-28T13:40:36;9.65;;;5.60;;
81864;SDS011;71313;43.514;1.500;2023-12-28T13:43:07;9.80;;;4.78;;
81864;SDS011;71313;43.514;1.500;2023-12-28T13:45:36;8.80;;;4.78;;
81864;SDS011;71313;43.514;1.500;2023-12-28T13:48:07;8.15;;;5.13;;
81864;SDS011;71313;43.514;1.500;2023-12-28T13:50:37;7.32;;;4.95;;
81864;SDS011;71313;43.514;1.500;2023-12-28T13:53:08;8.02;;;5.00;;
81864;SDS011;71313;43.514;1.500;2023-12-28T13:55:36;9.52;;;5.35;;
81864;SDS011;71313;43.514;1.500;2023-12-28T13:58:07;8.73;;;5.53;;
81864;SDS011;71313;43.514;1.500;2023-12-28T14:00:39;7.10;;;5.05;;
81864;SDS011;71313;43.514;1.500;2023-12-28T14:03:10;9.25;;;5.88;;
81864;SDS011;71313;43.514;1.500;2023-12-28T14:05:42;7.63;;;4.95;;
81864;SDS011;71313;43.514;1.500;2023-12-28T14:08:13;6.72;;;4.50;;
81864;SDS011;71313;43.514;1.500;2023-12-28T14:10:40;6.65;;;4.40;;
81864;SDS011;71313;43.514;1.500;2023-12-28T14:13:09;9.32;;;5.00;;
81864;SDS011;71313;43.514;1.500;2023-12-28T14:15:40;10.20;;;5.32;;
81864;SDS011;71313;43.514;1.500;2023-12-28T14:18:10;7.80;;;4.70;;
81864;SDS011;71313;43.514;1.500;2023-12-28T14:20:39;7.53;;;4.43;;
81864;SDS011;71313;43.514;1.500;2023-12-28T14:23:07;8.25;;;5.03;;
81864;SDS011;71313;43.514;1.500;2023-12-28T14:25:40;7.22;;;4.65;;
81864;SDS011;71313;43.514;1.500;2023-12-28T14:28:11;7.78;;;4.95;;
81864;SDS011;71313;43.514;1.500;2023-12-28T14:30:40;8.32;;;4.78;;
81864;SDS011;71313;43.514;1.500;2023-12-28T14:33:13;10.35;;;5.10;;
81864;SDS011;71313;43.514;1.500;2023-12-28T14:35:42;8.43;;;5.32;;
81864;SDS011;71313;43.514;1.500;2023-12-28T14:38:13;8.90;;;5.78;;
81864;SDS011;71313;43.514;1.500;2023-12-28T14:40:39;7.97;;;4.97;;
81864;SDS011;71313;43.514;1.500;2023-12-28T14:43:07;8.15;;;4.82;;
81864;SDS011;71313;43.514;1.500;2023-12-28T14:45:35;8.82;;;5.10;;
81864;SDS011;71313;43.514;1.500;2023-12-28T14:48:07;8.88;;;4.75;;
81864;SDS011;71313;43.514;1.500;2023-12-28T14:50:35;7.70;;;4.40;;
81864;SDS011;71313;43.514;1.500;2023-12-28T14:53:04;9.38;;;4.18;;
81864;SDS011;71313;43.514;1.500;2023-12-28T14:55:32;7.93;;;5.15;;
81864;SDS011;71313;43.514;1.500;2023-12-28T14:58:01;9.00;;;5.00;;
81864;SDS011;71313;43.514;1.500;2023-12-28T15:00:30;5.85;;;4.28;;
81864;SDS011;71313;43.514;1.500;2023-12-28T15:02:58;6.22;;;4.65;;
81864;SDS011;71313;43.514;1.500;2023-12-28T15:05:27;8.63;;;4.80;;
81864;SDS011;71313;43.514;1.500;2023-12-28T15:07:59;6.43;;;4.47;;
81864;SDS011;71313;43.514;1.500;2023-12-28T15:10:28;8.20;;;4.97;;
81864;SDS011;71313;43.514;1.500;2023-12-28T15:12:57;9.35;;;5.35;;
81864;SDS011;71313;43.514;1.500;2023-12-28T15:15:28;8.95;;;5.20;;
81864;SDS011;71313;43.514;1.500;2023-12-28T15:17:57;7.70;;;5.07;;
81864;SDS011;71313;43.514;1.500;2023-12-28T15:20:29;8.80;;;5.00;;